createdAt,value
2022-08-26T00:00:44.315Z,94976.00
2022-08-26T00:03:11.809Z,94978.69
2022-08-26T00:05:38.638Z,94973.69
2022-08-26T00:08:04.990Z,94978.91
2022-08-26T00:10:31.349Z,94986.31
2022-08-26T00:12:57.685Z,94975.66
2022-08-26T00:15:24.031Z,94974.84
2022-08-26T00:17:50.376Z,94975.97
2022-08-26T00:20:16.763Z,94973.41
2022-08-26T00:22:43.109Z,94967.25
2022-08-26T00:25:10.069Z,94969.88
2022-08-26T00:27:36.417Z,94966.13
2022-08-26T00:30:02.776Z,94969.78
2022-08-26T00:32:29.122Z,94965.06
2022-08-26T00:34:55.473Z,94965.78
2022-08-26T00:37:21.831Z,94965.06
2022-08-26T00:39:48.698Z,94969.88
2022-08-26T00:42:15.343Z,94964.34
2022-08-26T00:44:42.259Z,94977.50
2022-08-26T00:47:08.606Z,94977.97
2022-08-26T00:49:34.962Z,94977.25
2022-08-26T00:52:01.317Z,94977.09
2022-08-26T00:54:27.667Z,94975.44
2022-08-26T00:56:54.649Z,94976.78
2022-08-26T00:59:21.005Z,94972.34
2022-08-26T01:01:47.557Z,94972.81
2022-08-26T01:04:13.990Z,94973.59
2022-08-26T01:06:40.358Z,94974.66
2022-08-26T01:09:10.647Z,94982.72
2022-08-26T01:11:37.005Z,94980.00
2022-08-26T01:14:03.406Z,94982.31
2022-08-26T01:16:29.809Z,94989.91
2022-08-26T01:18:56.162Z,94985.75
2022-08-26T01:21:22.995Z,94982.53
2022-08-26T01:23:50.866Z,94981.16
2022-08-26T01:26:19.679Z,94983.44
2022-08-26T01:28:46.406Z,94987.91
2022-08-26T01:31:16.938Z,94982.31
2022-08-26T01:33:43.962Z,94979.31
2022-08-26T01:36:11.219Z,94984.31
2022-08-26T01:38:37.566Z,94982.31
2022-08-26T01:41:03.926Z,94978.38
2022-08-26T01:43:42.598Z,94982.78
2022-08-26T01:46:09.183Z,94983.78
2022-08-26T01:48:36.557Z,94981.16
2022-08-26T01:51:03.000Z,94984.91
2022-08-26T01:53:29.378Z,94983.31
2022-08-26T01:55:55.739Z,94993.69
2022-08-26T01:58:22.098Z,94988.31
2022-08-26T02:00:48.511Z,94982.91
2022-08-26T02:03:17.097Z,94990.16
2022-08-26T02:05:43.696Z,94993.31
2022-08-26T02:08:10.063Z,94991.94
2022-08-26T02:10:36.410Z,94995.53
2022-08-26T02:13:02.784Z,94994.25
2022-08-26T02:15:29.554Z,94986.56
2022-08-26T02:17:55.919Z,94991.03
2022-08-26T02:20:23.835Z,94994.75
2022-08-26T02:22:51.087Z,94990.75
2022-08-26T02:25:17.440Z,94995.53
2022-08-26T02:27:43.786Z,94997.69
2022-08-26T02:30:10.127Z,94994.91
2022-08-26T02:32:37.751Z,94995.69
2022-08-26T02:35:06.604Z,94998.25
2022-08-26T02:37:33.220Z,94994.16
2022-08-26T02:40:00.463Z,94988.00
2022-08-26T02:42:26.855Z,94987.91
2022-08-26T02:44:53.272Z,94991.94
2022-08-26T02:47:19.612Z,94988.91
2022-08-26T02:49:51.230Z,94991.03
2022-08-26T02:52:17.584Z,94995.69
2022-08-26T02:54:44.478Z,94985.09
2022-08-26T02:57:11.831Z,94992.81
2022-08-26T02:59:38.180Z,94986.09
2022-08-26T03:02:04.675Z,94987.34
2022-08-26T03:04:31.100Z,94983.31
2022-08-26T03:06:59.860Z,94987.66
2022-08-26T03:09:26.853Z,94988.41
2022-08-26T03:11:53.274Z,94982.72
2022-08-26T03:14:19.915Z,94984.03
2022-08-26T03:16:48.581Z,94981.94
2022-08-26T03:19:15.019Z,94984.44
2022-08-26T03:21:44.071Z,94985.59
2022-08-26T03:24:10.450Z,94979.63
2022-08-26T03:26:36.829Z,94993.09
2022-08-26T03:29:03.166Z,94998.47
2022-08-26T03:31:29.729Z,94981.88
2022-08-26T03:33:59.640Z,94983.66
2022-08-26T03:36:26.227Z,94980.50
2022-08-26T03:38:52.578Z,94975.50
2022-08-26T03:41:18.940Z,94975.75
2022-08-26T03:43:45.338Z,94980.13
2022-08-26T03:46:14.060Z,94980.13
2022-08-26T03:48:40.478Z,94983.78
2022-08-26T03:51:07.861Z,94985.28
2022-08-26T03:53:37.803Z,94986.00
2022-08-26T03:56:04.829Z,94980.78
2022-08-26T03:58:31.258Z,94986.88
2022-08-26T04:00:57.611Z,94988.34
2022-08-26T04:03:24.070Z,94984.50
2022-08-26T04:05:50.520Z,94994.09
2022-08-26T04:08:16.873Z,94989.44
2022-08-26T04:10:43.235Z,94989.19
2022-08-26T04:13:09.670Z,94990.06
2022-08-26T04:15:36.148Z,94990.50
2022-08-26T04:18:02.647Z,94988.47
2022-08-26T04:20:29.234Z,94989.81
2022-08-26T04:22:55.581Z,94995.69
2022-08-26T04:25:21.936Z,95003.94
2022-08-26T04:27:48.427Z,94993.69
2022-08-26T04:30:14.942Z,94992.84
2022-08-26T04:32:41.287Z,94997.59
2022-08-26T04:35:08.389Z,95000.03
2022-08-26T04:37:35.491Z,95001.47
2022-08-26T04:40:02.139Z,94996.84
2022-08-26T04:42:28.561Z,94995.13
2022-08-26T04:44:54.940Z,94998.22
2022-08-26T04:47:21.302Z,95001.47
2022-08-26T04:49:47.668Z,94994.25
2022-08-26T04:52:14.019Z,94999.28
2022-08-26T04:54:42.007Z,94995.78
2022-08-26T04:57:08.513Z,94995.69
2022-08-26T04:59:38.980Z,94986.41
2022-08-26T05:02:05.800Z,94989.81
2022-08-26T05:04:32.887Z,94994.63
2022-08-26T05:07:02.883Z,94990.53
2022-08-26T05:09:29.469Z,94988.53
2022-08-26T05:11:56.808Z,94992.81
2022-08-26T05:14:23.334Z,94989.34
2022-08-26T05:16:49.786Z,94988.53
2022-08-26T05:19:16.143Z,94997.78
2022-08-26T05:21:45.403Z,94992.16
2022-08-26T05:24:13.529Z,94989.16
2022-08-26T05:26:39.883Z,94992.16
2022-08-26T05:29:06.232Z,94993.16
2022-08-26T05:31:32.983Z,94992.09
2022-08-26T05:33:59.378Z,94997.31
2022-08-26T05:36:27.003Z,94991.91
2022-08-26T05:38:53.498Z,94995.59
2022-08-26T05:41:19.868Z,94993.56
2022-08-26T05:43:46.223Z,94997.19
2022-08-26T05:46:12.667Z,95002.09
2022-08-26T05:48:39.060Z,95010.53
2022-08-26T05:51:10.674Z,95005.78
2022-08-26T05:53:37.027Z,95008.59
2022-08-26T05:56:04.942Z,95014.53
2022-08-26T05:58:31.307Z,95017.59
2022-08-26T06:00:57.675Z,95010.94
2022-08-26T06:03:24.018Z,95011.09
2022-08-26T06:05:50.374Z,95008.69
2022-08-26T06:08:19.178Z,95016.88
2022-08-26T06:10:45.806Z,95015.66
2022-08-26T06:13:12.281Z,95015.84
2022-08-26T06:15:38.739Z,95017.25
2022-08-26T06:18:08.418Z,95014.63
2022-08-26T06:20:34.763Z,95019.59
2022-08-26T06:23:01.159Z,95017.72
2022-08-26T06:25:27.506Z,95023.06
2022-08-26T06:27:53.863Z,95025.31
2022-08-26T06:30:20.220Z,95021.88
2022-08-26T06:32:49.443Z,95028.09
2022-08-26T06:35:15.830Z,95025.94
2022-08-26T06:37:42.975Z,95024.59
2022-08-26T06:40:09.357Z,95032.31
2022-08-26T06:42:37.874Z,95024.03
2022-08-26T06:45:05.523Z,95023.59
2022-08-26T06:47:31.931Z,95034.28
2022-08-26T06:50:00.519Z,95028.75
2022-08-26T06:52:27.319Z,95040.16
2022-08-26T06:54:53.681Z,95042.88
2022-08-26T06:57:20.031Z,95042.72
2022-08-26T06:59:46.470Z,95038.84
2022-08-26T07:02:13.577Z,95044.44
2022-08-26T07:04:40.122Z,95040.69
2022-08-26T07:07:06.472Z,95042.31
2022-08-26T07:09:36.069Z,95046.28
2022-08-26T07:12:04.511Z,95039.75
2022-08-26T07:14:30.921Z,95048.03
2022-08-26T07:16:57.274Z,95050.34
2022-08-26T07:19:29.846Z,95050.19
2022-08-26T07:21:57.884Z,95059.50
2022-08-26T07:24:24.231Z,95053.97
2022-08-26T07:26:54.927Z,95049.88
2022-08-26T07:29:21.286Z,95061.34
2022-08-26T07:31:50.815Z,95049.06
2022-08-26T07:34:17.174Z,95053.34
2022-08-26T07:36:44.331Z,95061.69
2022-08-26T07:39:12.386Z,95064.81
2022-08-26T07:41:39.180Z,95059.25
2022-08-26T07:44:05.583Z,95064.00
2022-08-26T07:46:31.995Z,95062.53
2022-08-26T07:48:58.552Z,95070.75
2022-08-26T07:51:25.020Z,95070.19
2022-08-26T07:53:52.395Z,95069.88
2022-08-26T07:56:19.217Z,95065.84
2022-08-26T07:58:48.946Z,95068.59
2022-08-26T08:01:17.730Z,95069.06
2022-08-26T08:03:44.114Z,95071.06
2022-08-26T08:06:10.546Z,95071.25
2022-08-26T08:08:36.925Z,95067.06
2022-08-26T08:11:03.278Z,95069.13
2022-08-26T08:13:32.262Z,95074.22
2022-08-26T08:15:58.619Z,95071.38
2022-08-26T08:18:24.979Z,95068.09
2022-08-26T08:20:59.201Z,95058.69
2022-08-26T08:23:31.501Z,95059.09
2022-08-26T08:25:58.051Z,95059.03
2022-08-26T08:28:24.410Z,95061.03
2022-08-26T08:30:50.802Z,95060.88
2022-08-26T08:33:17.214Z,95067.28
2022-08-26T08:35:44.960Z,95054.06
2022-08-26T08:38:11.310Z,95061.34
2022-08-26T08:40:38.271Z,95064.00
2022-08-26T08:43:06.996Z,95067.47
2022-08-26T08:45:36.612Z,95072.19
2022-08-26T08:48:03.640Z,95067.88
2022-08-26T08:50:30.586Z,95070.19
2022-08-26T08:52:57.344Z,95075.06
2022-08-26T08:55:23.695Z,95070.91
2022-08-26T08:57:50.059Z,95073.31
2022-08-26T09:00:20.227Z,95079.19
2022-08-26T09:02:56.846Z,95080.94
2022-08-26T09:05:23.319Z,95084.72
2022-08-26T09:07:49.674Z,95080.06
2022-08-26T09:10:17.222Z,95081.66
2022-08-26T09:12:43.918Z,95091.53
2022-08-26T09:15:10.516Z,95086.09
2022-08-26T09:17:37.014Z,95092.44
2022-08-26T09:20:03.541Z,95089.22
2022-08-26T09:22:29.937Z,95087.22
2022-08-26T09:24:56.315Z,95091.13
2022-08-26T09:27:22.668Z,95084.25
2022-08-26T09:29:50.458Z,95095.72
2022-08-26T09:32:18.895Z,95091.13
2022-08-26T09:34:45.238Z,95094.75
2022-08-26T09:37:11.600Z,95092.03
2022-08-26T09:39:39.079Z,95096.28
2022-08-26T09:42:05.443Z,95090.59
2022-08-26T09:44:31.807Z,95090.13
2022-08-26T09:46:59.320Z,95095.56
2022-08-26T09:49:26.357Z,95088.50
2022-08-26T09:51:52.938Z,95098.63
2022-08-26T09:54:20.730Z,95091.72
2022-08-26T09:56:47.158Z,95093.56
2022-08-26T09:59:13.515Z,95091.63
2022-08-26T10:01:39.949Z,95090.31
2022-08-26T10:04:06.463Z,95085.38
2022-08-26T10:06:32.882Z,95093.63
2022-08-26T10:08:59.231Z,95086.97
2022-08-26T10:11:26.469Z,95091.38
2022-08-26T10:13:52.830Z,95091.84
2022-08-26T10:16:19.235Z,95086.09
2022-08-26T10:18:45.622Z,95079.34
2022-08-26T10:21:12.127Z,95070.66
2022-08-26T10:26:09.754Z,95077.06
2022-08-26T10:28:36.122Z,95078.06
2022-08-26T10:31:02.470Z,95075.34
2022-08-26T10:33:28.819Z,95076.78
2022-08-26T10:35:56.468Z,95081.34
2022-08-26T10:38:22.855Z,95074.22
2022-08-26T10:40:49.839Z,95075.94
2022-08-26T10:43:16.771Z,95080.69
2022-08-26T10:45:43.326Z,95075.94
2022-08-26T10:48:10.093Z,95073.31
2022-08-26T10:50:37.265Z,95082.66
2022-08-26T10:53:03.754Z,95079.19
2022-08-26T10:55:30.666Z,95070.44
2022-08-26T10:58:04.959Z,95075.66
2022-08-26T11:00:32.328Z,95073.75
2022-08-26T11:02:59.768Z,95066.66
2022-08-26T11:05:26.624Z,95072.38
2022-08-26T11:07:53.864Z,95068.28
2022-08-26T11:10:21.255Z,95067.47
2022-08-26T11:12:49.168Z,95075.00
2022-08-26T11:15:15.925Z,95075.09
2022-08-26T11:17:42.348Z,95072.28
2022-08-26T11:20:13.667Z,95076.19
2022-08-26T11:22:47.809Z,95079.34
2022-08-26T11:25:14.588Z,95078.22
2022-08-26T11:27:40.953Z,95075.72
2022-08-26T11:30:07.334Z,95079.44
2022-08-26T11:32:34.055Z,95073.41
2022-08-26T11:35:00.582Z,95070.53
2022-08-26T11:37:26.999Z,95072.75
2022-08-26T11:39:55.422Z,95070.13
2022-08-26T11:42:23.686Z,95071.78
2022-08-26T11:44:54.110Z,95068.41
2022-08-26T11:47:21.881Z,95060.94
2022-08-26T11:49:48.250Z,95059.50
2022-08-26T11:52:15.331Z,95054.28
2022-08-26T11:54:41.695Z,95053.88
2022-08-26T11:57:09.402Z,95056.72
2022-08-26T11:59:38.379Z,95061.13
2022-08-26T12:02:06.401Z,95056.22
2022-08-26T12:04:32.814Z,95041.47
2022-08-26T12:06:59.231Z,95056.13
2022-08-26T12:09:25.632Z,95049.72
2022-08-26T12:11:52.110Z,95051.91
2022-08-26T12:14:24.444Z,95050.69
2022-08-26T12:16:50.824Z,95052.44
2022-08-26T12:19:17.197Z,95043.59
2022-08-26T12:21:43.978Z,95048.84
2022-08-26T12:24:10.330Z,95049.31
2022-08-26T12:26:36.790Z,95044.00
2022-08-26T12:29:12.930Z,95048.81
2022-08-26T12:31:49.501Z,95045.31
2022-08-26T12:34:17.902Z,95040.47
2022-08-26T12:36:44.878Z,95040.31
2022-08-26T12:39:11.375Z,95043.84
2022-08-26T12:41:37.769Z,95039.38
2022-08-26T12:44:04.357Z,95034.41
2022-08-26T12:46:30.750Z,95046.28
2022-08-26T12:48:57.156Z,95036.78
2022-08-26T12:51:23.555Z,95037.13
2022-08-26T12:53:49.945Z,95033.03
2022-08-26T12:56:16.335Z,95032.38
2022-08-26T12:58:42.752Z,95026.91
2022-08-26T13:01:09.396Z,95028.63
2022-08-26T13:03:35.873Z,95022.44
2022-08-26T13:06:02.265Z,95017.97
2022-08-26T13:08:28.661Z,95019.94
2022-08-26T13:10:55.059Z,95010.81
2022-08-26T13:13:21.448Z,95016.38
2022-08-26T13:15:47.844Z,95008.91
2022-08-26T13:18:14.217Z,95004.31
2022-08-26T13:20:40.619Z,95010.22
2022-08-26T13:23:07.017Z,95012.91
2022-08-26T13:25:33.429Z,95015.47
2022-08-26T13:27:59.819Z,95013.69
2022-08-26T13:30:26.207Z,95008.00
2022-08-26T13:32:52.610Z,95016.91
2022-08-26T13:35:19.840Z,95009.81
2022-08-26T13:37:46.233Z,95007.47
2022-08-26T13:40:12.742Z,95008.56
2022-08-26T13:42:49.542Z,95000.75
2022-08-26T13:45:16.416Z,95006.56
2022-08-26T13:47:42.822Z,95002.34
2022-08-26T13:50:09.221Z,94996.53
2022-08-26T13:52:35.604Z,94986.50
2022-08-26T13:55:02.014Z,94990.19
2022-08-26T13:57:28.428Z,94994.91
2022-08-26T13:59:54.849Z,94988.91
2022-08-26T14:02:21.258Z,94994.16
2022-08-26T14:04:47.668Z,94985.94
2022-08-26T14:07:14.056Z,94986.25
2022-08-26T14:09:40.465Z,94980.06
2022-08-26T14:12:06.871Z,94975.19
2022-08-26T14:14:33.257Z,94974.84
2022-08-26T14:17:00.522Z,94973.84
2022-08-26T14:19:27.206Z,94975.50
2022-08-26T14:21:53.602Z,94971.56
2022-08-26T14:24:19.994Z,94973.41
2022-08-26T14:26:46.400Z,94960.09
2022-08-26T14:29:16.156Z,94965.25
2022-08-26T14:31:43.326Z,94960.00
2022-08-26T14:34:09.828Z,94960.91
2022-08-26T14:36:36.306Z,94970.59
2022-08-26T14:39:02.694Z,94956.75
2022-08-26T14:41:29.089Z,94958.25
2022-08-26T14:43:55.499Z,94961.78
2022-08-26T14:46:21.959Z,94962.50
2022-08-26T14:48:48.386Z,94956.34
2022-08-26T14:51:14.793Z,94962.69
2022-08-26T14:53:41.224Z,94960.13
2022-08-26T14:56:07.622Z,94953.19
2022-08-26T14:58:34.914Z,94953.81
2022-08-26T15:01:04.445Z,94950.22
2022-08-26T15:03:30.967Z,94952.72
2022-08-26T15:05:57.392Z,94943.72
2022-08-26T15:08:23.793Z,94950.38
2022-08-26T15:10:50.193Z,94949.50
2022-08-26T15:13:16.587Z,94948.84
2022-08-26T15:15:42.990Z,94947.50
2022-08-26T15:18:09.581Z,94943.41
2022-08-26T15:20:36.147Z,94950.88
2022-08-26T15:23:05.981Z,94942.44
2022-08-26T15:25:32.785Z,94948.22
2022-08-26T15:27:59.178Z,94947.91
2022-08-26T15:30:25.618Z,94950.94
2022-08-26T15:32:52.017Z,94941.47
2022-08-26T15:35:18.406Z,94943.56
2022-08-26T15:37:44.827Z,94942.19
2022-08-26T15:40:11.377Z,94935.53
2022-08-26T15:42:37.812Z,94929.97
2022-08-26T15:45:04.198Z,94930.78
2022-08-26T15:47:30.778Z,94925.66
2022-08-26T15:50:00.753Z,94928.63
2022-08-26T15:52:27.194Z,94927.34
2022-08-26T15:54:53.613Z,94924.31
2022-08-26T15:57:20.028Z,94926.38
2022-08-26T15:59:46.694Z,94935.22
2022-08-26T16:02:13.146Z,94934.06
2022-08-26T16:04:39.653Z,94938.63
2022-08-26T16:07:06.088Z,94942.25
2022-08-26T16:09:32.471Z,94944.50
2022-08-26T16:11:58.858Z,94944.66
2022-08-26T16:14:25.253Z,94949.69
2022-08-26T16:16:51.644Z,94946.34
2022-08-26T16:19:18.040Z,94947.69
2022-08-26T16:21:44.443Z,94948.00
2022-08-26T16:24:10.825Z,94954.75
2022-08-26T16:26:37.223Z,94949.97
2022-08-26T16:29:03.612Z,94946.03
2022-08-26T16:31:30.096Z,94935.50
2022-08-26T16:33:56.488Z,94934.09
2022-08-26T16:36:22.876Z,94930.66
2022-08-26T16:38:49.274Z,94938.22
2022-08-26T16:41:15.672Z,94946.34
2022-08-26T16:43:42.064Z,94938.00
2022-08-26T16:46:08.493Z,94939.56
2022-08-26T16:48:34.872Z,94941.00
2022-08-26T16:51:01.267Z,94948.88
2022-08-26T16:53:27.655Z,94937.28
2022-08-26T16:55:54.045Z,94941.56
2022-08-26T16:58:22.118Z,94944.19
2022-08-26T17:00:48.739Z,94937.25
2022-08-26T17:03:15.116Z,94936.25
2022-08-26T17:05:41.530Z,94938.72
2022-08-26T17:08:08.015Z,94934.44
2022-08-26T17:10:34.532Z,94927.38
2022-08-26T17:13:00.996Z,94930.56
2022-08-26T17:15:27.441Z,94940.03
2022-08-26T17:17:53.854Z,94942.59
2022-08-26T17:20:20.249Z,94945.44
2022-08-26T17:22:46.642Z,94943.31
2022-08-26T17:25:13.029Z,94941.97
2022-08-26T17:27:39.391Z,94937.59
2022-08-26T17:30:05.750Z,94947.38
2022-08-26T17:32:32.105Z,94936.88
2022-08-26T17:34:58.459Z,94929.91
2022-08-26T17:37:24.811Z,94931.00
2022-08-26T17:39:51.226Z,94928.47
2022-08-26T17:42:17.614Z,94920.78
2022-08-26T17:44:43.983Z,94930.53
2022-08-26T17:47:10.338Z,94926.41
2022-08-26T17:49:36.689Z,94929.53
2022-08-26T17:52:03.052Z,94928.84
2022-08-26T17:54:29.405Z,94929.09
2022-08-26T17:56:57.672Z,94926.59
2022-08-26T17:59:24.023Z,94925.69
2022-08-26T18:01:57.027Z,94927.94
2022-08-26T18:04:23.425Z,94933.53
2022-08-26T18:06:49.832Z,94927.09
2022-08-26T18:09:16.175Z,94928.09
2022-08-26T18:11:42.546Z,94941.72
2022-08-26T18:14:08.922Z,94931.25
2022-08-26T18:16:35.269Z,94934.34
2022-08-26T18:19:01.644Z,94939.44
2022-08-26T18:21:28.002Z,94943.75
2022-08-26T18:23:54.356Z,94951.41
2022-08-26T18:26:20.713Z,94948.94
2022-08-26T18:28:47.066Z,94946.06
2022-08-26T18:31:13.488Z,94954.47
2022-08-26T18:33:39.954Z,94959.00
2022-08-26T18:36:06.318Z,94961.59
2022-08-26T18:38:32.658Z,94962.16
2022-08-26T18:40:59.052Z,94962.53
2022-08-26T18:43:25.413Z,94964.63
2022-08-26T18:45:51.804Z,94962.78
2022-08-26T18:48:18.203Z,94966.78
2022-08-26T18:50:47.343Z,94974.34
2022-08-26T18:53:13.902Z,94970.06
2022-08-26T18:55:40.350Z,94970.97
2022-08-26T18:58:06.744Z,94969.63
2022-08-26T19:00:33.139Z,94972.25
2022-08-26T19:02:59.650Z,94973.28
2022-08-26T19:05:27.086Z,94976.56
2022-08-26T19:07:53.438Z,94975.81
2022-08-26T19:10:19.811Z,94969.94
2022-08-26T19:12:46.163Z,94976.53
2022-08-26T19:15:18.221Z,94979.41
2022-08-26T19:17:44.566Z,94982.00
2022-08-26T19:20:10.910Z,94975.56
2022-08-26T19:22:37.260Z,94981.97
2022-08-26T19:25:03.619Z,94983.44
2022-08-26T19:27:29.987Z,94981.31
2022-08-26T19:29:56.342Z,94976.53
2022-08-26T19:32:22.702Z,94986.22
2022-08-26T19:34:49.059Z,94982.00
2022-08-26T19:37:15.407Z,94983.03
2022-08-26T19:39:41.758Z,94982.69
2022-08-26T19:42:08.113Z,94984.16
2022-08-26T19:44:34.499Z,94984.03
2022-08-26T19:47:00.859Z,94987.91
2022-08-26T19:49:27.230Z,94987.16
2022-08-26T19:51:53.662Z,94986.66
2022-08-26T19:54:20.018Z,94983.25
2022-08-26T19:56:49.602Z,94986.00
2022-08-26T19:59:16.183Z,94985.31
2022-08-26T20:01:42.545Z,94987.78
2022-08-26T20:04:08.905Z,94994.66
2022-08-26T20:06:35.257Z,94989.94
2022-08-26T20:09:01.610Z,94993.69
2022-08-26T20:11:27.964Z,94987.03
2022-08-26T20:13:54.322Z,94992.59
2022-08-26T20:16:20.705Z,94998.94
2022-08-26T20:18:47.104Z,94986.19
2022-08-26T20:21:13.494Z,94984.31
2022-08-26T20:23:39.881Z,94979.59
2022-08-26T20:26:06.279Z,94979.78
2022-08-26T20:28:32.749Z,94985.19
2022-08-26T20:30:59.134Z,94986.94
2022-08-26T20:33:25.540Z,94988.50
2022-08-26T20:35:52.149Z,94989.75
2022-08-26T20:38:21.432Z,94988.16
2022-08-26T20:40:48.081Z,94988.63
2022-08-26T20:43:14.484Z,94985.59
2022-08-26T20:45:40.961Z,94998.69
2022-08-26T20:48:07.375Z,94995.97
2022-08-26T20:50:33.778Z,94987.91
2022-08-26T20:53:00.166Z,94999.66
2022-08-26T20:55:26.545Z,94992.59
2022-08-26T20:57:52.942Z,94995.03
2022-08-26T21:00:19.344Z,94996.78
2022-08-26T21:02:48.227Z,94993.63
2022-08-26T21:05:14.675Z,94997.88
2022-08-26T21:07:41.096Z,95002.16
2022-08-26T21:10:07.494Z,94992.81
2022-08-26T21:12:34.457Z,95000.22
2022-08-26T21:15:00.841Z,95005.13
2022-08-26T21:17:27.216Z,95007.28
2022-08-26T21:19:53.662Z,95005.28
2022-08-26T21:22:20.062Z,95005.69
2022-08-26T21:24:46.457Z,95004.88
2022-08-26T21:27:12.850Z,95014.63
2022-08-26T21:29:44.088Z,95018.78
2022-08-26T21:32:15.759Z,95002.94
2022-08-26T21:34:42.239Z,95002.41
2022-08-26T21:37:16.359Z,95005.28
2022-08-26T21:39:43.497Z,95009.72
2022-08-26T21:42:09.890Z,95008.50
2022-08-26T21:44:36.279Z,95001.50
2022-08-26T21:47:02.688Z,94998.53
2022-08-26T21:49:29.071Z,94997.88
2022-08-26T21:51:55.465Z,94998.63
2022-08-26T21:54:21.862Z,95000.97
2022-08-26T21:56:49.103Z,94999.66
2022-08-26T21:59:15.530Z,94996.34
2022-08-26T22:01:41.913Z,94996.34
2022-08-26T22:04:08.330Z,94991.91
2022-08-26T22:06:34.713Z,94996.63
2022-08-26T22:09:01.123Z,94999.50
2022-08-26T22:11:27.567Z,94995.81
2022-08-26T22:13:54.030Z,94995.81
2022-08-26T22:16:20.493Z,95004.97
2022-08-26T22:18:46.922Z,95007.59
2022-08-26T22:21:13.309Z,94998.69
2022-08-26T22:23:39.697Z,94997.50
2022-08-26T22:26:06.095Z,95000.81
2022-08-26T22:28:32.491Z,95001.97
2022-08-26T22:30:58.900Z,95001.88
2022-08-26T22:33:25.282Z,95001.25
2022-08-26T22:35:51.682Z,95002.09
2022-08-26T22:38:18.077Z,95008.09
2022-08-26T22:40:44.484Z,95005.38
2022-08-26T22:43:10.881Z,95005.38
2022-08-26T22:45:37.338Z,95004.59
2022-08-26T22:48:03.763Z,95013.03
2022-08-26T22:50:30.209Z,95020.94
2022-08-26T22:52:56.609Z,95010.00
2022-08-26T22:55:23.012Z,95012.59
2022-08-26T22:57:49.406Z,95013.41
2022-08-26T23:00:15.837Z,95008.94
2022-08-26T23:02:42.230Z,95005.50
2022-08-26T23:05:08.654Z,95011.00
2022-08-26T23:07:35.077Z,95007.41
2022-08-26T23:10:01.476Z,95005.63
2022-08-26T23:12:27.860Z,95007.94
2022-08-26T23:14:54.261Z,95004.94
2022-08-26T23:17:20.752Z,95007.22
2022-08-26T23:19:47.168Z,95000.97
2022-08-26T23:22:13.572Z,95001.97
2022-08-26T23:24:39.983Z,94994.59
2022-08-26T23:27:06.372Z,94994.34
2022-08-26T23:29:32.779Z,94996.09
2022-08-26T23:31:59.229Z,94991.22
2022-08-26T23:34:25.641Z,94985.59
2022-08-26T23:36:52.043Z,94994.09
2022-08-26T23:39:20.180Z,94984.78
2022-08-26T23:41:46.570Z,94990.09
2022-08-26T23:44:12.950Z,94983.66
2022-08-26T23:46:39.346Z,94978.13
2022-08-26T23:49:05.740Z,94976.78
2022-08-26T23:51:32.137Z,94978.88
2022-08-26T23:53:58.534Z,94975.47
2022-08-26T23:56:24.940Z,94970.69
2022-08-26T23:58:53.202Z,94963.47
